Time;durP1;ratioP1;P1;durP2;ratioP2;P2;SDS_P1;SDS_P2;PMS_P1;PMS_P2;Temp;Humidity;BMP_temperature;BMP_pressure;BME280_temperature;BME280_humidity;BME280_pressure;Samples;Min_cycle;Max_cycle;Signal;HPM_P1;HPM_P2
2022/06/24 00:00:13;;;;;;;9.30;1.27;;;24.40;72.00;;;;;;5095552;28;20097;-65
2022/06/24 00:02:40;;;;;;;1.33;1.10;;;24.40;71.90;;;;;;5096331;28;20062;-65
2022/06/24 00:05:09;;;;;;;1.13;1.02;;;24.40;71.80;;;;;;5091018;28;20123;-65
2022/06/24 00:07:45;;;;;;;2.13;1.92;;;24.30;71.80;;;;;;5099053;28;20031;-66
2022/06/24 00:10:12;;;;;;;1.38;1.27;;;24.20;72.20;;;;;;5095784;28;20114;-65
2022/06/24 00:12:45;;;;;;;4.80;1.10;;;24.10;72.40;;;;;;5102376;28;20093;-65
2022/06/24 00:15:11;;;;;;;1.55;1.40;;;24.10;72.40;;;;;;5089568;28;20135;-65
2022/06/24 00:17:37;;;;;;;6.28;1.42;;;24.00;72.30;;;;;;5081444;28;20447;-68
2022/06/24 00:20:06;;;;;;;2.35;1.75;;;24.10;72.50;;;;;;5086095;28;20250;-69
2022/06/24 00:22:44;;;;;;;1.98;1.27;;;24.00;72.40;;;;;;5087702;28;20024;-69
2022/06/24 00:25:14;;;;;;;2.50;1.58;;;24.00;72.40;;;;;;5086181;28;20032;-65
2022/06/24 00:27:42;;;;;;;1.63;1.50;;;23.90;72.60;;;;;;5097858;28;20036;-69
2022/06/24 00:30:16;;;;;;;3.25;1.85;;;23.90;72.60;;;;;;5082927;28;20042;-69
2022/06/24 00:32:43;;;;;;;2.10;1.73;;;23.90;72.70;;;;;;5083197;28;20044;-69
2022/06/24 00:35:16;;;;;;;6.68;1.77;;;23.90;72.70;;;;;;5077415;28;20040;-69
2022/06/24 00:37:44;;;;;;;2.50;1.83;;;23.80;72.80;;;;;;5091383;28;20110;-69
2022/06/24 00:40:10;;;;;;;3.20;1.65;;;23.80;72.90;;;;;;5090841;28;20070;-69
2022/06/24 00:42:41;;;;;;;2.00;1.65;;;23.80;72.80;;;;;;5099040;28;20494;-69
2022/06/24 00:45:37;;;;;;;1.53;1.43;;;23.90;73.00;;;;;;5079297;28;20039;-69
2022/06/24 00:48:08;;;;;;;1.73;1.63;;;23.90;72.90;;;;;;5080159;28;20120;-66
2022/06/24 00:50:39;;;;;;;3.00;2.28;;;23.80;72.80;;;;;;5090744;28;20089;-66
2022/06/24 00:53:05;;;;;;;1.98;1.63;;;23.90;72.90;;;;;;5080509;28;20113;-66
2022/06/24 00:55:34;;;;;;;1.67;1.58;;;23.90;72.80;;;;;;5084649;28;20043;-64
2022/06/24 00:58:01;;;;;;;1.55;1.45;;;23.90;72.80;;;;;;5092240;28;20032;-68
2022/06/24 01:00:32;;;;;;;2.72;1.83;;;23.90;73.00;;;;;;5085042;28;20037;-65
2022/06/24 01:03:00;;;;;;;2.20;2.10;;;23.90;73.40;;;;;;5085617;28;20020;-65
2022/06/24 01:05:27;;;;;;;2.55;1.98;;;23.90;73.80;;;;;;5080941;28;20046;-68
2022/06/24 01:07:53;;;;;;;2.70;1.75;;;23.90;73.80;;;;;;5095890;28;20036;-68
2022/06/24 01:10:19;;;;;;;2.97;1.63;;;23.80;74.00;;;;;;5077461;28;20048;-64
2022/06/24 01:12:48;;;;;;;2.47;2.28;;;23.80;74.10;;;;;;5076311;28;20045;-69
2022/06/24 01:15:14;;;;;;;2.17;1.73;;;23.70;74.70;;;;;;5082405;28;20051;-69
2022/06/24 01:17:41;;;;;;;3.03;2.00;;;23.50;75.00;;;;;;5091906;28;20031;-70
2022/06/24 01:20:11;;;;;;;1.80;1.70;;;23.50;75.30;;;;;;5088939;28;20028;-65
2022/06/24 01:22:37;;;;;;;2.50;1.92;;;23.40;75.20;;;;;;5078081;28;20035;-66
2022/06/24 01:25:04;;;;;;;3.45;2.67;;;23.40;75.50;;;;;;5084286;28;20038;-70
2022/06/24 01:27:30;;;;;;;2.65;1.98;;;23.40;75.90;;;;;;5087878;28;20483;-69
2022/06/24 01:29:55;;;;;;;3.47;2.28;;;23.40;76.10;;;;;;5098664;28;20143;-65
2022/06/24 01:32:21;;;;;;;2.47;2.22;;;23.40;75.80;;;;;;5091301;28;20052;-64
2022/06/24 01:34:47;;;;;;;2.50;2.17;;;23.50;75.70;;;;;;5093879;28;20043;-64
2022/06/24 01:37:13;;;;;;;4.50;2.42;;;23.50;75.60;;;;;;5079704;28;20614;-65
2022/06/24 01:39:38;;;;;;;2.50;2.30;;;23.50;75.60;;;;;;5089688;28;20551;-68
2022/06/24 01:42:05;;;;;;;2.47;1.90;;;23.50;75.60;;;;;;5084539;28;20024;-69
2022/06/24 01:44:30;;;;;;;3.28;2.58;;;23.50;76.10;;;;;;5094189;28;20040;-69
2022/06/24 01:46:56;;;;;;;2.17;1.98;;;23.40;76.30;;;;;;5089508;28;20135;-65
2022/06/24 01:49:22;;;;;;;2.95;2.00;;;23.40;76.30;;;;;;5085349;28;20029;-64
2022/06/24 01:51:50;;;;;;;2.28;2.08;;;23.40;76.30;;;;;;5093157;28;20498;-65
2022/06/24 01:54:16;;;;;;;2.38;1.75;;;23.40;76.40;;;;;;5076123;28;20100;-64
2022/06/24 01:56:42;;;;;;;2.17;1.60;;;23.40;76.30;;;;;;5093214;28;20367;-64
2022/06/24 01:59:07;;;;;;;2.63;2.22;;;23.30;76.20;;;;;;5073429;28;20036;-64
2022/06/24 02:01:33;;;;;;;2.50;2.08;;;23.20;76.40;;;;;;5091775;28;20036;-64
2022/06/24 02:03:59;;;;;;;4.40;1.95;;;23.20;76.40;;;;;;5086650;28;20051;-64
2022/06/24 02:06:24;;;;;;;1.75;1.65;;;23.20;76.30;;;;;;5091967;28;20832;-64
2022/06/24 02:08:51;;;;;;;2.25;2.05;;;23.20;76.30;;;;;;5086642;28;20032;-64
2022/06/24 02:14:05;;;;;;;2.78;1.65;;;23.20;76.60;;;;;;5098027;28;20558;-65
2022/06/24 02:16:31;;;;;;;3.05;2.38;;;23.20;76.60;;;;;;5095380;28;20069;-64
2022/06/24 02:18:57;;;;;;;2.65;1.58;;;23.20;76.60;;;;;;5081083;28;20021;-64
2022/06/24 02:21:24;;;;;;;3.35;1.90;;;23.20;76.60;;;;;;5080908;28;20038;-68
2022/06/24 02:23:51;;;;;;;2.30;1.75;;;23.20;77.40;;;;;;5068011;28;20086;-68
2022/06/24 02:26:17;;;;;;;2.75;1.85;;;23.10;76.80;;;;;;5089655;28;20039;-68
2022/06/24 02:28:43;;;;;;;3.50;1.70;;;23.10;77.20;;;;;;5094275;28;20483;-68
2022/06/24 02:31:09;;;;;;;1.40;1.30;;;23.00;77.20;;;;;;5086829;28;20487;-68
2022/06/24 02:33:34;;;;;;;2.72;1.90;;;23.10;77.30;;;;;;5079815;28;20024;-68
2022/06/24 02:36:01;;;;;;;2.03;1.83;;;23.10;77.10;;;;;;5077454;28;20035;-68
2022/06/24 02:38:27;;;;;;;1.35;1.25;;;23.10;77.10;;;;;;5088554;28;20043;-68
2022/06/24 02:40:53;;;;;;;1.20;1.10;;;23.10;77.30;;;;;;5073549;28;20030;-68
2022/06/24 02:43:25;;;;;;;1.70;1.52;;;23.00;77.40;;;;;;5079924;28;20484;-64
2022/06/24 02:46:01;;;;;;;1.30;1.20;;;22.90;77.40;;;;;;5091605;28;20047;-64
2022/06/24 02:48:28;;;;;;;1.00;1.00;;;22.90;77.40;;;;;;5071157;28;20033;-64
2022/06/24 02:50:57;;;;;;;1.48;1.23;;;22.90;77.50;;;;;;5110806;27;20036;-64
2022/06/24 02:53:23;;;;;;;1.30;1.20;;;22.80;77.40;;;;;;5090169;28;20455;-64
2022/06/24 02:55:58;;;;;;;6.72;1.30;;;22.80;77.20;;;;;;5080450;28;20044;-65
2022/06/24 02:58:24;;;;;;;2.67;0.90;;;22.70;77.20;;;;;;5102567;28;20051;-64
2022/06/24 03:00:50;;;;;;;1.23;1.13;;;22.70;77.10;;;;;;5079274;28;20589;-65
2022/06/24 03:03:18;;;;;;;0.82;0.75;;;22.60;77.00;;;;;;5096328;28;20029;-65
2022/06/24 03:05:44;;;;;;;0.93;0.80;;;22.50;76.90;;;;;;5091688;28;20094;-65
2022/06/24 03:08:15;;;;;;;0.75;0.75;;;22.50;76.80;;;;;;5079182;28;20048;-65
2022/06/24 03:10:41;;;;;;;1.00;0.65;;;22.40;76.80;;;;;;5089835;28;20392;-66
2022/06/24 03:13:07;;;;;;;2.28;1.00;;;22.40;76.80;;;;;;5082586;28;20035;-65
2022/06/24 03:15:33;;;;;;;0.68;0.60;;;22.40;76.70;;;;;;5086104;28;20407;-68
2022/06/24 03:17:59;;;;;;;1.08;1.00;;;22.30;76.80;;;;;;5083660;28;20039;-68
2022/06/24 03:20:25;;;;;;;1.77;0.90;;;22.30;76.80;;;;;;5081696;28;20032;-65
2022/06/24 03:22:51;;;;;;;0.60;0.60;;;22.20;76.70;;;;;;5077870;28;20060;-68
2022/06/24 03:25:16;;;;;;;0.70;0.70;;;22.20;76.60;;;;;;5088911;28;20075;-65
2022/06/24 03:27:42;;;;;;;2.75;1.20;;;22.20;76.50;;;;;;5090503;28;20056;-68
2022/06/24 03:30:10;;;;;;;1.00;0.80;;;22.10;76.50;;;;;;5076434;28;20062;-67
2022/06/24 03:32:36;;;;;;;1.55;0.88;;;22.10;76.40;;;;;;5090080;28;20032;-68
2022/06/24 03:35:03;;;;;;;0.50;0.50;;;22.10;76.40;;;;;;5095187;28;20074;-68
2022/06/24 03:37:29;;;;;;;1.85;1.25;;;22.00;76.30;;;;;;5095111;28;20404;-68
2022/06/24 03:39:56;;;;;;;0.77;0.63;;;22.00;76.40;;;;;;5092027;28;20112;-68
2022/06/24 03:42:21;;;;;;;0.40;0.40;;;22.00;76.30;;;;;;5081112;28;20082;-69
2022/06/24 03:44:47;;;;;;;1.00;0.90;;;22.00;76.20;;;;;;5093268;28;20031;-69
2022/06/24 03:47:13;;;;;;;0.75;0.65;;;22.00;76.10;;;;;;5100851;28;20024;-64
2022/06/24 03:49:39;;;;;;;0.68;0.65;;;22.00;75.90;;;;;;5102452;28;20028;-64
2022/06/24 03:52:05;;;;;;;0.70;0.70;;;21.90;76.00;;;;;;5094415;28;20042;-68
2022/06/24 03:54:35;;;;;;;1.00;0.63;;;21.90;76.10;;;;;;5095967;28;20043;-69
2022/06/24 03:57:01;;;;;;;0.70;0.60;;;21.90;76.10;;;;;;5082423;28;20158;-69
2022/06/24 03:59:27;;;;;;;0.60;0.60;;;21.80;76.00;;;;;;5089870;28;20034;-69
2022/06/24 04:02:01;;;;;;;0.70;0.70;;;21.80;76.10;;;;;;5092126;28;20024;-69
2022/06/24 04:04:36;;;;;;;0.60;0.60;;;21.80;76.00;;;;;;5086102;28;20061;-68
2022/06/24 04:07:02;;;;;;;1.75;0.75;;;21.80;75.90;;;;;;5079882;28;20544;-65
2022/06/24 04:09:27;;;;;;;0.63;0.50;;;21.80;75.80;;;;;;5073188;28;20020;-65
2022/06/24 04:11:53;;;;;;;1.58;0.82;;;21.80;75.80;;;;;;5079837;28;20044;-65
2022/06/24 04:15:13;;;;;;;0.95;0.85;;;21.80;75.80;;;;;;5085584;28;20044;-68
2022/06/24 04:17:04;;;;;;;0.52;0.52;;;21.70;75.80;;;;;;5083333;28;20056;-65
2022/06/24 04:19:35;;;;;;;1.83;0.90;;;21.70;75.90;;;;;;5076168;28;20055;-64
2022/06/24 04:22:02;;;;;;;0.65;0.65;;;21.60;75.90;;;;;;5079782;28;20134;-65
2022/06/24 04:24:27;;;;;;;2.83;1.05;;;21.60;76.00;;;;;;5056563;28;20024;-68
2022/06/24 04:26:53;;;;;;;2.03;1.20;;;21.50;76.10;;;;;;5079350;28;20478;-65
2022/06/24 04:29:18;;;;;;;0.82;0.70;;;21.50;76.20;;;;;;5084096;28;20486;-65
2022/06/24 04:31:47;;;;;;;0.70;0.70;;;21.50;76.80;;;;;;5081790;28;20151;-68
2022/06/24 04:34:13;;;;;;;1.33;1.05;;;21.50;76.10;;;;;;5085007;28;20115;-69
2022/06/24 04:36:38;;;;;;;1.50;1.05;;;21.50;76.70;;;;;;5086803;28;20039;-68
2022/06/24 04:39:04;;;;;;;1.08;0.98;;;21.50;76.20;;;;;;5073461;28;20081;-68
2022/06/24 04:41:30;;;;;;;1.45;0.95;;;21.50;76.10;;;;;;5076617;28;20036;-68
2022/06/24 04:43:56;;;;;;;0.85;0.70;;;21.50;76.20;;;;;;5089144;28;20410;-69
2022/06/24 04:46:21;;;;;;;0.80;0.80;;;21.50;76.20;;;;;;5077254;28;20487;-69
2022/06/24 04:48:47;;;;;;;0.73;0.73;;;21.50;76.60;;;;;;5089540;28;20040;-69
2022/06/24 04:51:13;;;;;;;0.60;0.60;;;21.60;76.60;;;;;;5082232;28;20032;-69
2022/06/24 04:53:38;;;;;;;0.95;0.88;;;21.60;76.60;;;;;;5093933;28;20067;-69
2022/06/24 04:56:04;;;;;;;1.25;1.13;;;21.60;76.30;;;;;;5085833;28;20024;-65
2022/06/24 04:58:30;;;;;;;0.98;0.98;;;21.60;76.20;;;;;;5085485;28;20063;-68
2022/06/24 05:00:56;;;;;;;2.20;1.00;;;21.60;76.70;;;;;;5091359;28;20031;-68
2022/06/24 05:03:22;;;;;;;1.83;0.77;;;21.70;76.10;;;;;;5091421;28;20024;-68
2022/06/24 05:05:47;;;;;;;0.85;0.85;;;21.70;76.10;;;;;;5085207;28;20037;-64
2022/06/24 05:08:13;;;;;;;0.80;0.77;;;21.70;76.00;;;;;;5083180;28;20386;-68
2022/06/24 05:10:41;;;;;;;1.10;0.70;;;21.70;76.10;;;;;;5082129;28;20819;-65
2022/06/24 05:13:08;;;;;;;0.70;0.70;;;21.70;76.00;;;;;;5079020;28;20509;-65
2022/06/24 05:15:34;;;;;;;1.08;0.70;;;21.70;75.90;;;;;;5082789;28;20036;-67
2022/06/24 05:17:59;;;;;;;1.00;0.90;;;21.70;75.90;;;;;;5089476;28;20035;-65
2022/06/24 05:20:25;;;;;;;1.90;1.13;;;21.70;76.00;;;;;;5086632;28;20040;-65
2022/06/24 05:22:50;;;;;;;1.13;1.08;;;21.70;76.00;;;;;;5088080;28;20039;-68
2022/06/24 05:25:16;;;;;;;2.55;0.68;;;21.70;76.00;;;;;;5086797;28;20027;-65
2022/06/24 05:27:42;;;;;;;1.67;1.05;;;21.80;76.10;;;;;;5092548;28;20107;-65
2022/06/24 05:30:10;;;;;;;0.90;0.90;;;21.80;76.00;;;;;;5083136;28;20131;-69
2022/06/24 05:32:35;;;;;;;0.98;0.93;;;21.70;76.00;;;;;;5102865;28;20043;-68
2022/06/24 05:35:01;;;;;;;1.27;0.80;;;21.80;76.10;;;;;;5093204;28;20484;-64
2022/06/24 05:37:27;;;;;;;0.93;0.80;;;21.70;76.00;;;;;;5094666;28;20120;-65
2022/06/24 05:39:52;;;;;;;1.15;0.98;;;21.80;76.00;;;;;;5080277;28;20040;-65
2022/06/24 05:42:18;;;;;;;2.60;0.90;;;21.70;76.10;;;;;;5090697;28;20024;-65
2022/06/24 05:44:43;;;;;;;1.00;0.80;;;21.70;76.10;;;;;;5079305;28;20032;-65
2022/06/24 05:47:09;;;;;;;0.65;0.65;;;21.70;76.10;;;;;;5089603;28;20021;-68
2022/06/24 05:49:35;;;;;;;1.13;1.00;;;21.70;76.20;;;;;;5098186;28;20075;-68
2022/06/24 05:52:00;;;;;;;2.88;0.88;;;21.70;76.30;;;;;;5088860;28;20036;-68
2022/06/24 05:57:11;;;;;;;2.00;0.70;;;21.70;76.50;;;;;;5089998;28;20055;-69
2022/06/24 05:59:38;;;;;;;1.73;1.20;;;21.70;76.60;;;;;;5087877;28;20387;-67
2022/06/24 06:02:07;;;;;;;0.90;0.82;;;21.60;76.70;;;;;;5086697;28;20028;-65
2022/06/24 06:04:33;;;;;;;1.20;1.13;;;21.60;76.90;;;;;;5080808;28;20059;-64
2022/06/24 06:06:59;;;;;;;1.65;1.20;;;21.50;77.00;;;;;;5067700;28;20031;-66
2022/06/24 06:09:25;;;;;;;3.33;1.35;;;21.50;77.20;;;;;;5092734;28;21722;-65
2022/06/24 06:11:51;;;;;;;1.20;1.10;;;21.50;77.20;;;;;;5087228;28;20036;-65
2022/06/24 06:14:17;;;;;;;1.00;0.93;;;21.50;77.20;;;;;;5085450;28;20085;-65
2022/06/24 06:16:42;;;;;;;2.50;0.90;;;21.50;77.10;;;;;;5086139;28;20098;-65
2022/06/24 06:19:08;;;;;;;1.70;1.20;;;21.50;77.20;;;;;;5085068;28;20082;-65
2022/06/24 06:21:34;;;;;;;4.43;1.75;;;21.60;77.50;;;;;;5083013;28;20401;-64
2022/06/24 06:23:59;;;;;;;1.00;1.00;;;21.60;77.60;;;;;;5086788;28;20050;-64
2022/06/24 06:26:25;;;;;;;1.65;1.30;;;21.50;77.60;;;;;;5083076;28;20036;-64
2022/06/24 06:28:51;;;;;;;1.17;1.08;;;21.50;77.60;;;;;;5075968;28;20039;-65
2022/06/24 06:31:16;;;;;;;1.40;0.73;;;21.60;77.70;;;;;;5071045;28;20455;-68
2022/06/24 06:33:42;;;;;;;1.20;1.10;;;21.60;77.50;;;;;;5079970;28;20157;-68
2022/06/24 06:36:11;;;;;;;1.20;1.10;;;21.60;77.40;;;;;;5084831;28;20038;-68
2022/06/24 06:38:37;;;;;;;1.15;1.00;;;21.60;77.30;;;;;;5084708;28;20580;-64
2022/06/24 06:41:03;;;;;;;3.78;1.25;;;21.70;77.20;;;;;;5074545;28;20029;-68
2022/06/24 06:43:29;;;;;;;1.65;1.13;;;21.70;77.20;;;;;;5069530;28;20386;-67
2022/06/24 06:45:56;;;;;;;0.90;0.77;;;21.70;77.10;;;;;;5073766;28;20492;-64
2022/06/24 06:48:22;;;;;;;1.40;1.30;;;21.80;77.10;;;;;;5070205;28;20487;-65
2022/06/24 06:50:54;;;;;;;2.67;1.13;;;21.80;77.00;;;;;;5083762;28;20073;-64
2022/06/24 06:53:20;;;;;;;0.85;0.70;;;21.80;77.00;;;;;;5084645;28;20020;-67
2022/06/24 06:55:45;;;;;;;8.73;1.10;;;21.90;77.00;;;;;;5067464;28;20088;-65
2022/06/24 06:58:11;;;;;;;1.95;1.10;;;22.00;77.00;;;;;;5080044;28;20032;-64
2022/06/24 07:00:37;;;;;;;0.95;0.80;;;22.00;77.10;;;;;;5077920;28;20029;-65
2022/06/24 07:03:02;;;;;;;0.80;0.80;;;22.00;77.20;;;;;;5088479;28;20048;-65
2022/06/24 07:05:28;;;;;;;1.67;1.30;;;22.00;77.10;;;;;;5079777;28;20685;-65
2022/06/24 07:07:58;;;;;;;1.00;1.00;;;22.00;76.90;;;;;;5080489;28;20043;-68
2022/06/24 07:10:24;;;;;;;1.20;1.10;;;22.00;77.20;;;;;;5066911;28;20055;-68
2022/06/24 07:12:50;;;;;;;0.95;0.80;;;22.00;77.20;;;;;;5068732;28;20392;-68
2022/06/24 07:15:16;;;;;;;0.98;0.98;;;21.90;77.20;;;;;;5069069;28;20105;-68
2022/06/24 07:17:42;;;;;;;1.35;1.15;;;21.90;77.40;;;;;;5069234;28;20370;-68
2022/06/24 07:20:09;;;;;;;1.42;1.23;;;21.80;77.40;;;;;;5080219;28;20039;-68
2022/06/24 07:22:35;;;;;;;2.38;1.48;;;21.90;77.50;;;;;;5073523;28;20052;-65
2022/06/24 07:25:01;;;;;;;3.08;1.70;;;21.90;77.50;;;;;;5066811;28;20589;-65
2022/06/24 07:27:27;;;;;;;1.92;1.52;;;21.90;77.50;;;;;;5067914;28;20033;-65
2022/06/24 07:29:52;;;;;;;1.88;1.42;;;21.90;77.70;;;;;;5066682;28;20036;-65
2022/06/24 07:32:18;;;;;;;2.92;1.45;;;21.80;78.00;;;;;;5066581;28;20123;-65
2022/06/24 07:34:44;;;;;;;0.80;0.70;;;21.80;78.00;;;;;;5072660;28;20107;-65
2022/06/24 07:37:09;;;;;;;1.60;1.35;;;21.90;77.90;;;;;;5067662;28;20025;-66
2022/06/24 07:39:35;;;;;;;2.40;1.45;;;21.80;77.80;;;;;;5074315;28;20287;-64
2022/06/24 07:42:01;;;;;;;0.90;0.90;;;21.90;77.90;;;;;;5084517;28;20142;-64
2022/06/24 07:44:27;;;;;;;1.38;1.27;;;21.90;77.90;;;;;;5074078;28;20089;-64
2022/06/24 07:46:52;;;;;;;1.25;1.20;;;21.90;77.90;;;;;;5073821;28;20044;-65
2022/06/24 07:49:18;;;;;;;1.10;1.00;;;21.90;77.90;;;;;;5081862;28;20111;-64
2022/06/24 07:51:44;;;;;;;1.15;1.13;;;22.00;77.90;;;;;;5071326;28;20107;-64
2022/06/24 07:54:10;;;;;;;1.45;1.17;;;22.00;77.70;;;;;;5069171;28;20020;-65
2022/06/24 07:59:21;;;;;;;0.85;0.85;;;22.00;77.70;;;;;;5067822;28;20566;-68
2022/06/24 08:01:47;;;;;;;1.23;1.15;;;22.00;77.80;;;;;;5080787;28;20028;-68
2022/06/24 08:04:14;;;;;;;2.97;1.30;;;22.00;77.80;;;;;;5077827;28;20153;-68
2022/06/24 08:06:45;;;;;;;1.65;1.00;;;21.90;77.80;;;;;;5077133;28;20044;-68
2022/06/24 08:09:10;;;;;;;1.30;1.20;;;21.90;77.90;;;;;;5082064;28;20033;-69
2022/06/24 08:11:36;;;;;;;0.82;0.82;;;21.80;78.00;;;;;;5086772;28;20076;-68
2022/06/24 08:14:02;;;;;;;1.58;1.45;;;21.80;78.30;;;;;;5082337;28;20388;-68
2022/06/24 08:16:28;;;;;;;1.77;1.58;;;21.80;78.20;;;;;;5084365;28;20038;-68
2022/06/24 08:18:55;;;;;;;1.95;1.30;;;21.80;78.10;;;;;;5081876;28;20446;-68
2022/06/24 08:21:21;;;;;;;1.75;1.65;;;21.90;78.80;;;;;;5078190;28;20106;-68
2022/06/24 08:23:47;;;;;;;2.45;1.35;;;22.00;78.20;;;;;;5080426;28;20064;-68
2022/06/24 08:26:13;;;;;;;2.53;1.92;;;22.00;78.70;;;;;;5081562;28;20044;-68
2022/06/24 08:28:38;;;;;;;4.97;1.75;;;22.00;78.10;;;;;;5084725;28;20476;-68
2022/06/24 08:31:04;;;;;;;1.92;1.40;;;22.10;78.10;;;;;;5094000;28;20040;-68
2022/06/24 08:33:30;;;;;;;1.25;1.15;;;22.10;78.00;;;;;;5094632;28;20108;-67
2022/06/24 08:35:56;;;;;;;1.65;1.10;;;22.10;77.90;;;;;;5092184;28;20040;-68
2022/06/24 08:38:21;;;;;;;2.90;2.15;;;22.20;77.90;;;;;;5073264;28;20103;-68
2022/06/24 08:40:49;;;;;;;2.17;1.65;;;22.20;78.20;;;;;;5093014;28;20079;-68
2022/06/24 08:43:16;;;;;;;1.58;1.38;;;22.30;78.20;;;;;;5091017;28;20028;-68
2022/06/24 08:45:42;;;;;;;2.22;1.80;;;22.30;77.90;;;;;;5081728;28;20040;-67
2022/06/24 08:48:09;;;;;;;2.15;1.50;;;22.30;77.90;;;;;;5079761;28;20574;-65
2022/06/24 08:50:35;;;;;;;2.22;2.00;;;22.40;77.80;;;;;;5078628;28;20111;-64
2022/06/24 08:53:09;;;;;;;3.05;1.92;;;22.50;77.70;;;;;;5085790;28;20088;-65
2022/06/24 08:55:38;;;;;;;2.17;1.90;;;22.50;77.60;;;;;;5088484;28;20036;-65
2022/06/24 08:58:12;;;;;;;3.13;1.73;;;22.60;77.70;;;;;;5093029;28;20028;-65
2022/06/24 09:00:39;;;;;;;2.15;2.05;;;22.60;77.70;;;;;;5089666;28;20025;-64
2022/06/24 09:03:06;;;;;;;2.10;1.90;;;22.60;77.60;;;;;;5082524;28;20040;-65
2022/06/24 09:05:32;;;;;;;1.63;1.52;;;22.60;77.40;;;;;;5066093;28;20044;-66
2022/06/24 09:08:09;;;;;;;2.03;1.90;;;22.70;77.50;;;;;;5074031;28;20364;-65
2022/06/24 09:10:37;;;;;;;9.00;1.70;;;22.70;77.30;;;;;;5087642;28;20048;-65
2022/06/24 09:13:04;;;;;;;2.33;1.90;;;22.80;77.00;;;;;;5086625;28;20534;-65
2022/06/24 09:15:31;;;;;;;2.47;2.28;;;22.80;77.00;;;;;;5084003;28;20032;-64
2022/06/24 09:17:57;;;;;;;2.03;1.60;;;22.80;76.70;;;;;;5087043;28;20020;-65
2022/06/24 09:20:25;;;;;;;2.60;2.00;;;22.80;76.70;;;;;;5082799;28;20031;-65
2022/06/24 09:23:02;;;;;;;2.30;1.92;;;22.80;76.90;;;;;;5083117;28;20450;-65
2022/06/24 09:25:27;;;;;;;1.58;1.48;;;22.90;77.00;;;;;;5074798;28;20032;-68
2022/06/24 09:27:53;;;;;;;1.85;1.75;;;23.10;76.80;;;;;;5080000;28;20043;-68
2022/06/24 09:30:19;;;;;;;1.95;1.80;;;23.10;76.70;;;;;;5089673;28;20073;-65
2022/06/24 09:32:55;;;;;;;2.03;1.85;;;23.20;76.80;;;;;;5076478;28;20123;-65
2022/06/24 09:35:24;;;;;;;1.85;1.70;;;23.20;76.70;;;;;;5086704;28;20142;-65
2022/06/24 09:37:51;;;;;;;2.22;2.03;;;23.40;76.50;;;;;;5083603;28;20036;-65
2022/06/24 09:40:25;;;;;;;1.60;1.50;;;23.40;76.30;;;;;;5083058;28;20023;-67
2022/06/24 09:42:55;;;;;;;3.35;1.63;;;23.50;76.10;;;;;;5082176;28;20483;-67
2022/06/24 09:45:22;;;;;;;2.67;1.75;;;23.50;75.50;;;;;;5088229;28;20028;-68
2022/06/24 09:47:49;;;;;;;2.05;1.55;;;23.40;75.70;;;;;;5085404;28;20089;-65
2022/06/24 09:50:15;;;;;;;1.67;1.58;;;23.40;75.70;;;;;;5103534;27;20032;-66
2022/06/24 09:52:42;;;;;;;2.35;1.80;;;23.50;75.60;;;;;;5088686;28;20107;-65
2022/06/24 09:55:09;;;;;;;2.75;1.95;;;23.50;75.50;;;;;;5090711;28;20040;-66
2022/06/24 09:57:39;;;;;;;1.80;1.63;;;23.50;75.70;;;;;;5089001;28;20803;-63
2022/06/24 10:02:53;;;;;;;2.58;2.17;;;23.60;75.60;;;;;;5064427;28;20043;-67
2022/06/24 10:05:20;;;;;;;3.03;2.20;;;23.60;75.30;;;;;;5072598;28;20028;-67
2022/06/24 10:07:47;;;;;;;2.40;1.85;;;23.50;75.30;;;;;;5073538;28;20032;-66
2022/06/24 10:10:15;;;;;;;3.22;2.53;;;23.50;75.40;;;;;;5076514;28;20082;-67
2022/06/24 10:12:50;;;;;;;1.98;1.75;;;23.60;75.40;;;;;;5067845;28;20060;-67
2022/06/24 10:15:16;;;;;;;4.03;2.10;;;23.60;75.40;;;;;;5076506;28;20725;-65
2022/06/24 10:17:44;;;;;;;2.10;1.70;;;23.50;75.10;;;;;;5079864;28;20032;-65
2022/06/24 10:20:14;;;;;;;1.90;1.65;;;23.50;75.20;;;;;;5080980;28;20024;-67
2022/06/24 10:22:50;;;;;;;2.42;2.22;;;23.50;75.40;;;;;;5083024;28;20028;-64
2022/06/24 10:25:46;;;;;;;2.55;2.10;;;23.50;75.50;;;;;;5082124;28;20570;-65
2022/06/24 10:28:11;;;;;;;4.72;2.80;;;23.50;75.60;;;;;;5083057;28;20073;-66
2022/06/24 10:30:40;;;;;;;3.35;2.63;;;23.60;75.80;;;;;;5077737;28;21105;-68
2022/06/24 10:33:23;;;;;;;3.50;2.72;;;23.60;75.90;;;;;;5086012;28;20053;-68
2022/06/24 10:36:06;;;;;;;3.30;2.83;;;23.50;75.80;;;;;;5083405;28;20506;-67
2022/06/24 10:38:37;;;;;;;2.90;2.70;;;23.60;75.50;;;;;;5086903;28;20518;-66
2022/06/24 10:41:05;;;;;;;7.53;2.97;;;23.60;75.20;;;;;;5082259;28;20081;-65
2022/06/24 10:43:39;;;;;;;3.17;2.88;;;23.60;75.40;;;;;;5083769;28;20028;-66
2022/06/24 10:46:11;;;;;;;3.30;2.95;;;23.70;75.20;;;;;;5089544;28;20036;-67
2022/06/24 10:48:52;;;;;;;2.90;2.30;;;23.70;75.20;;;;;;5070110;28;20039;-67
2022/06/24 10:51:19;;;;;;;2.40;2.20;;;23.90;75.10;;;;;;5082539;28;20115;-66
2022/06/24 10:54:09;;;;;;;3.40;2.90;;;24.00;74.70;;;;;;5072389;28;20051;-67
2022/06/24 10:56:51;;;;;;;2.47;2.28;;;24.30;74.40;;;;;;5078824;28;20039;-66
2022/06/24 10:59:19;;;;;;;4.83;3.90;;;24.40;73.60;;;;;;5068592;28;20045;-64
2022/06/24 11:01:50;;;;;;;13.38;3.28;;;24.40;72.80;;;;;;5069045;28;20346;-66
2022/06/24 11:04:24;;;;;;;3.42;2.95;;;24.30;72.80;;;;;;5070070;28;20017;-68
2022/06/24 11:07:13;;;;;;;2.75;2.55;;;24.40;73.30;;;;;;5068486;28;20028;-67
2022/06/24 11:09:39;;;;;;;2.67;2.47;;;24.60;72.60;;;;;;5073562;28;20051;-67
2022/06/24 11:12:25;;;;;;;3.65;2.83;;;24.80;72.20;;;;;;5088414;28;20113;-67
2022/06/24 11:14:51;;;;;;;3.53;3.22;;;25.00;71.90;;;;;;5076519;28;20064;-67
2022/06/24 11:17:16;;;;;;;5.70;3.15;;;25.20;71.80;;;;;;5075759;28;20463;-66
2022/06/24 11:19:42;;;;;;;2.47;2.28;;;25.20;70.80;;;;;;5086064;28;20032;-68
2022/06/24 11:22:08;;;;;;;3.55;2.38;;;25.20;70.60;;;;;;5079176;28;20438;-68
2022/06/24 11:24:38;;;;;;;3.00;2.70;;;25.30;70.60;;;;;;5084055;28;20033;-68
2022/06/24 11:27:06;;;;;;;3.30;2.95;;;25.50;69.90;;;;;;5092115;28;20044;-66
2022/06/24 11:29:51;;;;;;;2.97;2.65;;;25.60;68.40;;;;;;5084277;28;20052;-66
2022/06/24 11:32:17;;;;;;;2.33;2.08;;;25.80;68.60;;;;;;5089729;28;20040;-68
2022/06/24 11:34:44;;;;;;;3.15;2.58;;;25.80;68.70;;;;;;5088927;28;20367;-68
2022/06/24 11:37:09;;;;;;;2.55;2.33;;;25.80;67.70;;;;;;5098249;28;20069;-67
2022/06/24 11:39:35;;;;;;;2.20;2.00;;;25.70;67.00;;;;;;5075117;28;20075;-68
2022/06/24 11:42:01;;;;;;;1.70;1.60;;;25.50;67.20;;;;;;5084674;28;20024;-67
2022/06/24 11:44:40;;;;;;;2.38;2.17;;;25.50;67.50;;;;;;5085483;28;20021;-67
2022/06/24 11:47:07;;;;;;;1.70;1.60;;;25.60;67.40;;;;;;5084951;28;20036;-68
2022/06/24 11:49:34;;;;;;;2.88;2.22;;;25.70;67.10;;;;;;5086101;28;20024;-68
2022/06/24 11:52:01;;;;;;;1.55;1.42;;;25.70;66.50;;;;;;5080840;28;20040;-68
2022/06/24 11:54:31;;;;;;;2.55;1.30;;;25.80;66.40;;;;;;5090322;28;20028;-68
2022/06/24 11:56:57;;;;;;;1.70;1.45;;;26.00;66.50;;;;;;5088278;28;20044;-68
2022/06/24 11:59:26;;;;;;;1.75;1.65;;;26.20;66.20;;;;;;5086812;28;20024;-68
2022/06/24 12:01:52;;;;;;;2.00;1.70;;;26.30;65.70;;;;;;5080330;28;20032;-68
2022/06/24 12:04:20;;;;;;;1.23;1.08;;;26.40;64.20;;;;;;5083462;28;20024;-68
2022/06/24 12:06:47;;;;;;;1.70;1.60;;;26.40;64.80;;;;;;5075685;28;20036;-68
2022/06/24 12:09:13;;;;;;;1.25;1.15;;;26.30;64.60;;;;;;5083792;28;20048;-67
2022/06/24 12:11:41;;;;;;;1.92;1.80;;;26.10;65.00;;;;;;5088719;28;20036;-68
2022/06/24 12:14:12;;;;;;;2.45;1.58;;;25.80;63.30;;;;;;5076735;28;20464;-68
2022/06/24 12:17:00;;;;;;;1.83;1.73;;;25.40;64.10;;;;;;5086827;28;20034;-65
2022/06/24 12:19:26;;;;;;;2.33;2.03;;;25.10;65.00;;;;;;5085720;28;20035;-66
2022/06/24 12:22:03;;;;;;;2.55;2.33;;;24.90;66.50;;;;;;5076617;28;20583;-66
2022/06/24 12:24:29;;;;;;;3.58;3.22;;;24.60;67.90;;;;;;5080368;28;20044;-65
2022/06/24 12:26:55;;;;;;;3.17;2.85;;;24.50;69.10;;;;;;5078249;28;20032;-66
2022/06/24 12:29:48;;;;;;;2.20;1.92;;;24.30;69.50;;;;;;5078589;28;20068;-67
2022/06/24 12:32:14;;;;;;;2.08;1.70;;;24.20;69.90;;;;;;5082799;28;20051;-69
2022/06/24 12:34:45;;;;;;;1.42;1.25;;;24.20;70.20;;;;;;5078894;28;20032;-69
2022/06/24 12:37:12;;;;;;;1.40;1.30;;;24.20;70.30;;;;;;5080846;28;20031;-65
2022/06/24 12:39:42;;;;;;;1.55;1.45;;;24.20;70.50;;;;;;5085575;28;20025;-68
2022/06/24 12:42:13;;;;;;;1.40;1.30;;;24.40;70.60;;;;;;5080213;28;20382;-68
2022/06/24 12:44:58;;;;;;;2.28;1.77;;;24.70;70.10;;;;;;5077258;28;20020;-68
2022/06/24 12:53:05;;;;;;;1.50;0.98;;;25.80;67.50;;;;;;5080145;28;20039;-68
2022/06/24 12:55:34;;;;;;;0.85;0.85;;;26.20;66.80;;;;;;5070498;28;20766;-68
2022/06/24 12:58:00;;;;;;;0.88;0.80;;;26.50;66.10;;;;;;5073310;28;20124;-65
2022/06/24 13:00:26;;;;;;;1.13;1.02;;;26.80;66.10;;;;;;5074727;28;20056;-64
2022/06/24 13:02:54;;;;;;;1.80;1.15;;;27.30;65.90;;;;;;5078079;28;20053;-64
2022/06/24 13:05:23;;;;;;;0.75;0.75;;;27.60;64.60;;;;;;5071145;28;20017;-64
2022/06/24 13:07:49;;;;;;;1.10;1.10;;;27.60;64.20;;;;;;5089062;28;20044;-64